sensor_id;sensor_type;location;lat;lon;timestamp;pressure;altitude;pressure_sealevel;temperature;humidity
23131;BME280;11734;51.046;13.778;2022-08-19T00:02:08;57924.31;;;22.26;100.00
23131;BME280;11734;51.046;13.778;2022-08-19T00:04:35;58011.09;;;22.27;100.00
23131;BME280;11734;51.046;13.778;2022-08-19T00:07:06;57924.06;;;22.42;100.00
23131;BME280;11734;51.046;13.778;2022-08-19T00:09:34;58079.44;;;22.20;100.00
23131;BME280;11734;51.046;13.778;2022-08-19T00:12:02;58033.09;;;22.22;100.00
23131;BME280;11734;51.046;13.778;2022-08-19T00:14:29;57942.81;;;21.94;100.00
23131;BME280;11734;51.046;13.778;2022-08-19T00:16:59;58048.34;;;21.90;100.00
23131;BME280;11734;51.046;13.778;2022-08-19T00:19:27;57923.53;;;22.14;100.00
23131;BME280;11734;51.046;13.778;2022-08-19T00:21:54;57824.06;;;22.16;100.00
23131;BME280;11734;51.046;13.778;2022-08-19T00:24:23;57865.13;;;22.08;100.00
23131;BME280;11734;51.046;13.778;2022-08-19T00:26:52;57732.34;;;22.21;100.00
23131;BME280;11734;51.046;13.778;2022-08-19T00:29:22;57718.38;;;22.12;100.00
23131;BME280;11734;51.046;13.778;2022-08-19T00:31:50;57741.81;;;21.80;100.00
23131;BME280;11734;51.046;13.778;2022-08-19T00:34:21;57628.88;;;22.02;100.00
23131;BME280;11734;51.046;13.778;2022-08-19T00:36:49;57527.94;;;21.95;100.00
23131;BME280;11734;51.046;13.778;2022-08-19T00:39:17;57471.75;;;21.89;100.00
23131;BME280;11734;51.046;13.778;2022-08-19T00:41:46;57319.84;;;21.87;100.00
23131;BME280;11734;51.046;13.778;2022-08-19T00:44:24;57120.66;;;21.95;100.00
23131;BME280;11734;51.046;13.778;2022-08-19T00:46:55;57092.47;;;22.02;100.00
23131;BME280;11734;51.046;13.778;2022-08-19T00:49:43;57009.72;;;21.99;100.00
23131;BME280;11734;51.046;13.778;2022-08-19T00:52:18;57012.06;;;22.02;100.00
23131;BME280;11734;51.046;13.778;2022-08-19T00:54:47;56867.88;;;21.85;100.00
23131;BME280;11734;51.046;13.778;2022-08-19T00:57:22;56723.84;;;21.97;100.00
23131;BME280;11734;51.046;13.778;2022-08-19T00:59:53;56658.31;;;21.90;100.00
23131;BME280;11734;51.046;13.778;2022-08-19T01:02:30;56501.75;;;21.83;100.00
23131;BME280;11734;51.046;13.778;2022-08-19T01:05:01;56337.06;;;21.73;100.00
23131;BME280;11734;51.046;13.778;2022-08-19T01:10:06;55607.78;;;21.69;100.00
23131;BME280;11734;51.046;13.778;2022-08-19T01:12:35;55267.97;;;21.75;100.00
23131;BME280;11734;51.046;13.778;2022-08-19T01:15:07;55120.81;;;21.78;100.00
23131;BME280;11734;51.046;13.778;2022-08-19T01:17:38;54948.97;;;21.51;100.00
23131;BME280;11734;51.046;13.778;2022-08-19T01:20:09;54565.25;;;21.68;100.00
23131;BME280;11734;51.046;13.778;2022-08-19T01:22:44;54248.13;;;21.66;100.00
23131;BME280;11734;51.046;13.778;2022-08-19T01:25:15;53916.34;;;21.66;100.00
23131;BME280;11734;51.046;13.778;2022-08-19T01:27:48;53705.91;;;21.52;100.00
23131;BME280;11734;51.046;13.778;2022-08-19T01:30:30;53467.38;;;21.57;100.00
23131;BME280;11734;51.046;13.778;2022-08-19T01:32:58;52982.97;;;21.45;100.00
23131;BME280;11734;51.046;13.778;2022-08-19T01:35:30;52751.00;;;21.30;100.00
23131;BME280;11734;51.046;13.778;2022-08-19T01:38:00;52592.41;;;21.57;100.00
23131;BME280;11734;51.046;13.778;2022-08-19T01:40:32;52259.97;;;21.56;100.00
23131;BME280;11734;51.046;13.778;2022-08-19T01:43:01;51842.63;;;21.65;100.00
23131;BME280;11734;51.046;13.778;2022-08-19T01:45:33;51749.31;;;21.56;100.00
23131;BME280;11734;51.046;13.778;2022-08-19T01:48:01;51423.19;;;21.69;100.00
23131;BME280;11734;51.046;13.778;2022-08-19T01:50:30;51127.69;;;21.70;100.00
23131;BME280;11734;51.046;13.778;2022-08-19T01:52:58;50924.78;;;21.64;100.00
23131;BME280;11734;51.046;13.778;2022-08-19T01:55:36;50547.22;;;21.60;100.00
23131;BME280;11734;51.046;13.778;2022-08-19T01:58:10;50135.66;;;21.60;100.00
23131;BME280;11734;51.046;13.778;2022-08-19T02:00:39;49751.69;;;21.61;100.00
23131;BME280;11734;51.046;13.778;2022-08-19T02:03:06;49380.53;;;21.65;100.00
23131;BME280;11734;51.046;13.778;2022-08-19T02:05:37;48991.66;;;21.66;100.00
23131;BME280;11734;51.046;13.778;2022-08-19T02:08:05;48763.56;;;21.68;100.00
23131;BME280;11734;51.046;13.778;2022-08-19T02:13:00;48074.78;;;21.58;100.00
23131;BME280;11734;51.046;13.778;2022-08-19T02:15:27;47442.13;;;21.52;100.00
23131;BME280;11734;51.046;13.778;2022-08-19T02:17:55;46648.56;;;21.54;100.00
23131;BME280;11734;51.046;13.778;2022-08-19T02:20:22;46043.84;;;21.56;100.00
23131;BME280;11734;51.046;13.778;2022-08-19T02:22:49;45559.28;;;21.54;100.00
23131;BME280;11734;51.046;13.778;2022-08-19T02:25:17;44902.44;;;21.32;100.00
23131;BME280;11734;51.046;13.778;2022-08-19T02:27:44;43819.00;;;21.60;100.00
23131;BME280;11734;51.046;13.778;2022-08-19T02:30:15;43937.69;;;21.40;100.00
23131;BME280;11734;51.046;13.778;2022-08-19T02:32:43;43344.97;;;21.31;100.00
23131;BME280;11734;51.046;13.778;2022-08-19T02:35:15;42876.69;;;21.55;100.00
23131;BME280;11734;51.046;13.778;2022-08-19T02:37:43;42162.03;;;21.51;100.00
23131;BME280;11734;51.046;13.778;2022-08-19T02:40:30;41410.09;;;21.50;100.00
23131;BME280;11734;51.046;13.778;2022-08-19T02:43:03;40754.28;;;21.54;100.00
23131;BME280;11734;51.046;13.778;2022-08-19T02:45:38;40277.03;;;21.53;100.00
23131;BME280;11734;51.046;13.778;2022-08-19T02:48:08;39685.97;;;21.54;100.00
23131;BME280;11734;51.046;13.778;2022-08-19T02:50:50;39112.66;;;21.53;100.00
23131;BME280;11734;51.046;13.778;2022-08-19T02:53:23;38143.28;;;21.57;100.00
23131;BME280;11734;51.046;13.778;2022-08-19T02:55:51;38709.09;;;21.59;100.00
23131;BME280;11734;51.046;13.778;2022-08-19T02:58:20;38176.09;;;21.62;100.00
23131;BME280;11734;51.046;13.778;2022-08-19T03:00:52;38194.41;;;21.62;100.00
23131;BME280;11734;51.046;13.778;2022-08-19T03:03:21;37611.44;;;21.58;100.00
23131;BME280;11734;51.046;13.778;2022-08-19T03:05:48;37248.28;;;21.60;100.00
23131;BME280;11734;51.046;13.778;2022-08-19T03:08:24;37274.59;;;21.43;100.00
23131;BME280;11734;51.046;13.778;2022-08-19T03:10:52;36522.94;;;21.54;100.00
23131;BME280;11734;51.046;13.778;2022-08-19T03:13:20;35675.84;;;21.48;100.00
23131;BME280;11734;51.046;13.778;2022-08-19T03:15:48;34890.25;;;21.51;100.00
23131;BME280;11734;51.046;13.778;2022-08-19T03:18:15;34331.44;;;21.27;100.00
23131;BME280;11734;51.046;13.778;2022-08-19T03:20:52;33919.22;;;21.55;100.00
23131;BME280;11734;51.046;13.778;2022-08-19T03:23:23;33693.00;;;21.50;100.00
23131;BME280;11734;51.046;13.778;2022-08-19T03:25:52;32632.22;;;21.45;100.00
23131;BME280;11734;51.046;13.778;2022-08-19T03:28:41;31436.19;;;21.44;100.00
23131;BME280;11734;51.046;13.778;2022-08-19T03:31:20;30757.41;;;21.47;100.00
23131;BME280;11734;51.046;13.778;2022-08-19T03:34:16;30417.69;;;21.47;100.00
23131;BME280;11734;51.046;13.778;2022-08-19T03:36:46;29740.06;;;21.52;100.00
23131;BME280;11734;51.046;13.778;2022-08-19T03:39:14;29738.56;;;21.49;100.00
23131;BME280;11734;51.046;13.778;2022-08-19T03:41:43;29393.66;;;21.39;100.00
23131;BME280;11734;51.046;13.778;2022-08-19T03:44:22;28029.84;;;21.29;100.00
23131;BME280;11734;51.046;13.778;2022-08-19T03:46:54;27016.63;;;21.41;100.00
23131;BME280;11734;51.046;13.778;2022-08-19T03:49:26;26677.50;;;21.42;100.00
23131;BME280;11734;51.046;13.778;2022-08-19T03:51:57;26335.91;;;21.37;100.00
23131;BME280;11734;51.046;13.778;2022-08-19T03:54:25;26679.09;;;21.45;100.00
23131;BME280;11734;51.046;13.778;2022-08-19T03:56:55;26340.66;;;21.48;100.00
23131;BME280;11734;51.046;13.778;2022-08-19T03:59:33;26339.75;;;21.46;100.00
23131;BME280;11734;51.046;13.778;2022-08-19T04:02:10;26337.50;;;21.41;100.00
23131;BME280;11734;51.046;13.778;2022-08-19T04:04:40;25995.09;;;21.34;100.00
23131;BME280;11734;51.046;13.778;2022-08-19T04:07:09;25653.69;;;21.30;100.00
23131;BME280;11734;51.046;13.778;2022-08-19T04:09:37;25319.94;;;21.43;100.00
23131;BME280;11734;51.046;13.778;2022-08-19T04:12:05;25659.81;;;21.44;100.00
23131;BME280;11734;51.046;13.778;2022-08-19T04:14:34;25991.09;;;21.25;100.00
23131;BME280;11734;51.046;13.778;2022-08-19T04:17:03;26001.53;;;21.49;100.00
23131;BME280;11734;51.046;13.778;2022-08-19T04:19:34;25653.47;;;21.29;100.00
23131;BME280;11734;51.046;13.778;2022-08-19T04:22:02;26003.09;;;21.52;100.00
23131;BME280;11734;51.046;13.778;2022-08-19T04:24:29;26341.53;;;21.50;100.00
23131;BME280;11734;51.046;13.778;2022-08-19T04:26:59;25997.31;;;21.39;100.00
23131;BME280;11734;51.046;13.778;2022-08-19T04:29:27;25650.16;;;21.22;100.00
23131;BME280;11734;51.046;13.778;2022-08-19T04:31:56;25647.09;;;21.14;100.00
23131;BME280;11734;51.046;13.778;2022-08-19T04:34:27;24971.94;;;21.23;100.00
23131;BME280;11734;51.046;13.778;2022-08-19T04:36:58;24979.66;;;21.41;100.00
23131;BME280;11734;51.046;13.778;2022-08-19T04:39:30;24966.38;;;21.09;100.00
23131;BME280;11734;51.046;13.778;2022-08-19T04:42:18;24980.72;;;21.43;100.00
23131;BME280;11734;51.046;13.778;2022-08-19T04:45:12;24976.44;;;21.33;100.00
23131;BME280;11734;51.046;13.778;2022-08-19T04:47:43;24620.84;;;20.94;100.00
23131;BME280;11734;51.046;13.778;2022-08-19T04:50:26;24625.06;;;21.04;100.00
23131;BME280;11734;51.046;13.778;2022-08-19T04:52:56;24290.09;;;21.14;100.00
23131;BME280;11734;51.046;13.778;2022-08-19T04:55:24;24640.28;;;21.41;100.00
23131;BME280;11734;51.046;13.778;2022-08-19T04:57:55;24978.16;;;21.37;100.00
23131;BME280;11734;51.046;13.778;2022-08-19T05:00:23;24981.78;;;21.46;100.00
23131;BME280;11734;51.046;13.778;2022-08-19T05:02:50;25316.03;;;21.34;100.00
23131;BME280;11734;51.046;13.778;2022-08-19T05:05:17;24286.34;;;21.05;100.00
23131;BME280;11734;51.046;13.778;2022-08-19T05:07:45;24979.66;;;21.41;100.00
23131;BME280;11734;51.046;13.778;2022-08-19T05:10:13;25660.03;;;21.44;100.00
23131;BME280;11734;51.046;13.778;2022-08-19T05:12:41;25320.16;;;21.43;100.00
23131;BME280;11734;51.046;13.778;2022-08-19T05:15:09;25320.16;;;21.43;100.00
23131;BME280;11734;51.046;13.778;2022-08-19T05:17:36;25321.66;;;21.47;100.00
23131;BME280;11734;51.046;13.778;2022-08-19T05:20:07;25659.16;;;21.42;100.00
23131;BME280;11734;51.046;13.778;2022-08-19T05:22:54;25659.16;;;21.42;100.00
23131;BME280;11734;51.046;13.778;2022-08-19T05:25:22;25659.38;;;21.43;100.00
23131;BME280;11734;51.046;13.778;2022-08-19T05:27:49;25661.81;;;21.48;100.00
23131;BME280;11734;51.046;13.778;2022-08-19T05:30:17;25999.97;;;21.45;100.00
23131;BME280;11734;51.046;13.778;2022-08-19T05:33:05;26000.19;;;21.46;100.00
23131;BME280;11734;51.046;13.778;2022-08-19T05:35:33;26680.47;;;21.48;100.00
23131;BME280;11734;51.046;13.778;2022-08-19T05:38:01;27015.00;;;21.37;100.00
23131;BME280;11734;51.046;13.778;2022-08-19T05:40:28;26672.03;;;21.30;100.00
23131;BME280;11734;51.046;13.778;2022-08-19T05:42:56;26674.31;;;21.35;100.00
23131;BME280;11734;51.046;13.778;2022-08-19T05:45:23;26675.00;;;21.36;100.00
23131;BME280;11734;51.046;13.778;2022-08-19T05:47:51;27014.56;;;21.36;100.00
23131;BME280;11734;51.046;13.778;2022-08-19T05:50:19;27012.25;;;21.31;100.00
23131;BME280;11734;51.046;13.778;2022-08-19T05:52:46;27011.56;;;21.30;100.00
23131;BME280;11734;51.046;13.778;2022-08-19T05:55:17;26666.78;;;21.18;100.00
23131;BME280;11734;51.046;13.778;2022-08-19T05:57:47;26326.69;;;21.17;100.00
23131;BME280;11734;51.046;13.778;2022-08-19T06:00:15;26327.81;;;21.19;100.00
23131;BME280;11734;51.046;13.778;2022-08-19T06:02:45;25987.75;;;21.17;100.00
23131;BME280;11734;51.046;13.778;2022-08-19T06:05:13;25647.53;;;21.15;100.00
23131;BME280;11734;51.046;13.778;2022-08-19T06:07:41;24967.69;;;21.12;100.00
23131;BME280;11734;51.046;13.778;2022-08-19T06:10:11;24287.81;;;21.09;100.00
23131;BME280;11734;51.046;13.778;2022-08-19T06:12:39;23611.00;;;21.12;100.00
23131;BME280;11734;51.046;13.778;2022-08-19T06:15:12;23609.38;;;21.08;100.00
23131;BME280;11734;51.046;13.778;2022-08-19T06:17:41;23607.53;;;21.04;100.00
23131;BME280;11734;51.046;13.778;2022-08-19T06:20:13;23268.91;;;21.05;100.00
23131;BME280;11734;51.046;13.778;2022-08-19T06:22:44;23944.56;;;20.99;100.00
23131;BME280;11734;51.046;13.778;2022-08-19T06:25:14;23946.41;;;21.03;100.00
23131;BME280;11734;51.046;13.778;2022-08-19T06:27:42;24627.19;;;21.09;100.00
23131;BME280;11734;51.046;13.778;2022-08-19T06:30:29;25648.63;;;21.18;100.00
23131;BME280;11734;51.046;13.778;2022-08-19T06:32:57;25987.75;;;21.17;100.00
23131;BME280;11734;51.046;13.778;2022-08-19T06:35:24;25988.22;;;21.19;100.00
23131;BME280;11734;51.046;13.778;2022-08-19T06:37:52;26328.50;;;21.21;100.00
23131;BME280;11734;51.046;13.778;2022-08-19T06:40:21;25989.97;;;21.23;100.00
23131;BME280;11734;51.046;13.778;2022-08-19T06:42:48;25991.53;;;21.26;100.00
23131;BME280;11734;51.046;13.778;2022-08-19T06:45:22;26669.75;;;21.25;100.00
23131;BME280;11734;51.046;13.778;2022-08-19T06:47:52;26330.75;;;21.26;100.00
23131;BME280;11734;51.046;13.778;2022-08-19T06:50:23;26669.53;;;21.24;100.00
23131;BME280;11734;51.046;13.778;2022-08-19T06:52:51;26667.25;;;21.19;100.00
23131;BME280;11734;51.046;13.778;2022-08-19T06:55:19;26328.94;;;21.22;100.00
23131;BME280;11734;51.046;13.778;2022-08-19T06:57:47;25991.31;;;21.26;100.00
23131;BME280;11734;51.046;13.778;2022-08-19T07:00:15;25649.28;;;21.20;100.00
23131;BME280;11734;51.046;13.778;2022-08-19T07:02:43;25990.88;;;21.25;100.00
23131;BME280;11734;51.046;13.778;2022-08-19T07:05:22;25309.53;;;21.19;100.00
23131;BME280;11734;51.046;13.778;2022-08-19T07:07:49;24956.75;;;20.87;100.00
23131;BME280;11734;51.046;13.778;2022-08-19T07:10:17;24617.47;;;20.86;100.00
23131;BME280;11734;51.046;13.778;2022-08-19T07:12:45;24634.16;;;21.26;100.00
23131;BME280;11734;51.046;13.778;2022-08-19T07:15:13;24626.75;;;21.08;100.00
23131;BME280;11734;51.046;13.778;2022-08-19T07:17:40;24637.13;;;21.33;100.00
23131;BME280;11734;51.046;13.778;2022-08-19T07:20:09;24298.44;;;21.35;100.00
23131;BME280;11734;51.046;13.778;2022-08-19T07:22:38;24300.53;;;21.40;100.00
23131;BME280;11734;51.046;13.778;2022-08-19T07:25:07;24299.47;;;21.37;100.00
23131;BME280;11734;51.046;13.778;2022-08-19T07:27:35;23956.28;;;21.28;100.00
23131;BME280;11734;51.046;13.778;2022-08-19T07:30:07;23272.31;;;21.13;100.00
23131;BME280;11734;51.046;13.778;2022-08-19T07:32:39;21914.97;;;21.10;100.00
23131;BME280;11734;51.046;13.778;2022-08-19T07:35:08;19874.88;;;20.89;100.00
23131;BME280;11734;51.046;13.778;2022-08-19T07:37:36;16491.13;;;20.90;100.00
23131;BME280;11734;51.046;13.778;2022-08-19T07:40:08;14462.88;;;20.93;100.00
23131;BME280;11734;51.046;13.778;2022-08-19T07:42:36;12435.13;;;20.93;100.00
23131;BME280;11734;51.046;13.778;2022-08-19T07:45:06;10067.72;;;20.75;100.00
23131;BME280;11734;51.046;13.778;2022-08-19T07:47:34;6021.25;;;20.85;100.00
23131;BME280;11734;51.046;13.778;2022-08-19T07:50:18;-2060.44;;;20.64;100.00
23131;BME280;11734;51.046;13.778;2022-08-19T07:52:48;-9112.44;;;20.56;100.00
23131;BME280;11734;51.046;13.778;2022-08-19T07:55:20;-12465.38;;;20.57;100.00
23131;BME280;11734;51.046;13.778;2022-08-19T07:58:08;-14474.06;;;20.51;100.00
23131;BME280;11734;51.046;13.778;2022-08-19T08:00:35;-16148.78;;;20.54;100.00
23131;BME280;11734;51.046;13.778;2022-08-19T08:03:03;-16484.78;;;20.60;100.00
23131;BME280;11734;51.046;13.778;2022-08-19T08:05:30;-16483.00;;;20.52;100.00
23131;BME280;11734;51.046;13.778;2022-08-19T08:08:16;-16486.63;;;20.59;100.00
23131;BME280;11734;51.046;13.778;2022-08-19T08:11:03;-16485.34;;;20.54;100.00
23131;BME280;11734;51.046;13.778;2022-08-19T08:13:34;-16485.22;;;20.53;100.00
23131;BME280;11734;51.046;13.778;2022-08-19T08:16:05;-16487.69;;;20.64;100.00
23131;BME280;11734;51.046;13.778;2022-08-19T08:18:36;-16488.63;;;20.68;100.00
23131;BME280;11734;51.046;13.778;2022-08-19T08:21:08;-16488.75;;;20.68;100.00
23131;BME280;11734;51.046;13.778;2022-08-19T08:23:36;-16484.06;;;20.57;100.00
23131;BME280;11734;51.046;13.778;2022-08-19T08:26:06;-16485.00;;;20.61;100.00
23131;BME280;11734;51.046;13.778;2022-08-19T08:28:33;-16486.66;;;20.68;100.00
23131;BME280;11734;51.046;13.778;2022-08-19T08:31:00;-16484.78;;;20.60;100.00
23131;BME280;11734;51.046;13.778;2022-08-19T08:33:35;-16488.03;;;20.65;100.00
23131;BME280;11734;51.046;13.778;2022-08-19T08:36:07;-16484.84;;;20.52;100.00
23131;BME280;11734;51.046;13.778;2022-08-19T08:38:35;-16485.44;;;20.54;100.00
23131;BME280;11734;51.046;13.778;2022-08-19T08:44:04;-16486.28;;;20.58;100.00
23131;BME280;11734;51.046;13.778;2022-08-19T08:46:55;-16485.56;;;20.55;100.00
23131;BME280;11734;51.046;13.778;2022-08-19T08:52:23;-16491.31;;;20.80;100.00
23131;BME280;11734;51.046;13.778;2022-08-19T08:55:00;-16494.50;;;20.93;100.00
23131;BME280;11734;51.046;13.778;2022-08-19T09:00:21;-16497.69;;;21.07;100.00
23131;BME280;11734;51.046;13.778;2022-08-19T09:02:49;-16498.66;;;21.20;100.00
23131;BME280;11734;51.046;13.778;2022-08-19T09:05:19;-16163.63;;;21.20;100.00
23131;BME280;11734;51.046;13.778;2022-08-19T09:08:13;-15830.78;;;21.30;100.00
23131;BME280;11734;51.046;13.778;2022-08-19T09:10:51;-15163.22;;;21.43;100.00
23131;BME280;11734;51.046;13.778;2022-08-19T09:16:31;-13482.34;;;21.21;100.00
23131;BME280;11734;51.046;13.778;2022-08-19T09:19:04;-12147.81;;;21.65;100.00
23131;BME280;11734;51.046;13.778;2022-08-19T09:21:33;-11478.97;;;21.82;100.00
23131;BME280;11734;51.046;13.778;2022-08-19T09:24:02;-9800.53;;;21.92;100.00
23131;BME280;11734;51.046;13.778;2022-08-19T09:26:31;-8119.41;;;21.90;100.00
23131;BME280;11734;51.046;13.778;2022-08-19T09:29:19;-6774.81;;;21.99;100.00
23131;BME280;11734;51.046;13.778;2022-08-19T09:31:49;-6439.50;;;22.15;100.00
23131;BME280;11734;51.046;13.778;2022-08-19T09:34:17;-5766.91;;;22.25;100.00
23131;BME280;11734;51.046;13.778;2022-08-19T09:36:49;-4083.00;;;22.24;100.00
23131;BME280;11734;51.046;13.778;2022-08-19T09:39:22;-3072.13;;;22.17;100.00
23131;BME280;11734;51.046;13.778;2022-08-19T09:41:50;-2735.41;;;22.32;100.00
23131;BME280;11734;51.046;13.778;2022-08-19T09:44:18;-1724.16;;;22.40;100.00
23131;BME280;11734;51.046;13.778;2022-08-19T09:46:48;-712.47;;;22.38;100.00
23131;BME280;11734;51.046;13.778;2022-08-19T09:49:17;-712.31;;;22.48;100.00
23131;BME280;11734;51.046;13.778;2022-08-19T09:51:51;637.53;;;22.54;100.00
23131;BME280;11734;51.046;13.778;2022-08-19T09:54:19;1650.91;;;22.68;100.00
23131;BME280;11734;51.046;13.778;2022-08-19T09:56:55;1989.47;;;22.82;100.00
23131;BME280;11734;51.046;13.778;2022-08-19T09:59:24;3003.63;;;22.90;100.00
23131;BME280;11734;51.046;13.778;2022-08-19T10:01:52;5032.38;;;22.95;100.00
23131;BME280;11734;51.046;13.778;2022-08-19T10:04:20;5708.38;;;22.91;100.00
23131;BME280;11734;51.046;13.778;2022-08-19T10:07:11;6046.22;;;22.88;100.00
23131;BME280;11734;51.046;13.778;2022-08-19T10:09:39;6385.41;;;22.95;100.00
23131;BME280;11734;51.046;13.778;2022-08-19T10:12:08;6724.28;;;22.99;100.00
23131;BME280;11734;51.046;13.778;2022-08-19T10:14:37;7062.94;;;23.01;100.00
23131;BME280;11734;51.046;13.778;2022-08-19T10:17:05;8077.56;;;22.96;100.00
23131;BME280;11734;51.046;13.778;2022-08-19T10:19:48;8420.88;;;23.26;100.00
23131;BME280;11734;51.046;13.778;2022-08-19T10:22:22;9441.75;;;23.53;100.00
23131;BME280;11734;51.046;13.778;2022-08-19T10:24:52;10120.72;;;23.58;100.00
23131;BME280;11734;51.046;13.778;2022-08-19T10:27:20;10797.53;;;23.52;100.00
23131;BME280;11734;51.046;13.778;2022-08-19T10:29:48;10795.63;;;23.42;100.00
23131;BME280;11734;51.046;13.778;2022-08-19T10:32:15;11137.56;;;23.56;100.00
23131;BME280;11734;51.046;13.778;2022-08-19T10:34:42;11823.59;;;23.92;100.00
23131;BME280;11734;51.046;13.778;2022-08-19T10:37:16;14217.25;;;24.60;100.00
23131;BME280;11734;51.046;13.778;2022-08-19T10:39:57;16611.28;;;25.05;100.00
23131;BME280;11734;51.046;13.778;2022-08-19T10:42:24;19340.50;;;25.18;100.00
23131;BME280;11734;51.046;13.778;2022-08-19T10:44:51;21720.44;;;25.00;100.00
23131;BME280;11734;51.046;13.778;2022-08-19T10:47:19;22052.47;;;24.76;100.00
23131;BME280;11734;51.046;13.778;2022-08-19T10:49:54;23075.50;;;24.76;100.00
23131;BME280;11734;51.046;13.778;2022-08-19T10:52:43;24428.03;;;24.48;100.00
23131;BME280;11734;51.046;13.778;2022-08-19T10:55:23;24759.47;;;24.25;100.00
23131;BME280;11734;51.046;13.778;2022-08-19T10:58:19;25423.50;;;23.84;100.00
23131;BME280;11734;51.046;13.778;2022-08-19T11:00:57;25409.38;;;23.51;100.00
23131;BME280;11734;51.046;13.778;2022-08-19T11:03:26;25069.69;;;23.53;100.00
23131;BME280;11734;51.046;13.778;2022-08-19T11:06:07;24732.56;;;23.61;100.00
23131;BME280;11734;51.046;13.778;2022-08-19T11:08:36;24739.53;;;23.78;100.00
23131;BME280;11734;51.046;13.778;2022-08-19T11:11:06;24746.13;;;23.93;100.00
23131;BME280;11734;51.046;13.778;2022-08-19T11:13:38;24744.84;;;23.90;100.00
23131;BME280;11734;51.046;13.778;2022-08-19T11:16:12;25766.44;;;23.89;100.00
23131;BME280;11734;51.046;13.778;2022-08-19T11:18:49;25430.66;;;24.01;100.00
23131;BME280;11734;51.046;13.778;2022-08-19T11:21:29;25433.28;;;24.07;100.00
23131;BME280;11734;51.046;13.778;2022-08-19T11:24:04;26451.72;;;23.97;100.00
23131;BME280;11734;51.046;13.778;2022-08-19T11:26:33;26443.59;;;23.79;100.00
23131;BME280;11734;51.046;13.778;2022-08-19T11:29:01;26461.66;;;24.19;100.00
23131;BME280;11734;51.046;13.778;2022-08-19T11:31:33;27149.59;;;24.32;100.00
23131;BME280;11734;51.046;13.778;2022-08-19T11:34:03;27150.06;;;24.33;100.00
23131;BME280;11734;51.046;13.778;2022-08-19T11:36:31;27148.66;;;24.30;100.00
23131;BME280;11734;51.046;13.778;2022-08-19T11:39:04;27485.63;;;24.21;100.00
23131;BME280;11734;51.046;13.778;2022-08-19T11:41:31;27451.97;;;23.48;100.00
23131;BME280;11734;51.046;13.778;2022-08-19T11:43:59;27138.47;;;24.08;100.00
23131;BME280;11734;51.046;13.778;2022-08-19T11:46:27;27145.88;;;24.24;100.00
23131;BME280;11734;51.046;13.778;2022-08-19T11:49:00;27152.34;;;24.38;100.00
23131;BME280;11734;51.046;13.778;2022-08-19T11:51:28;28162.00;;;24.08;100.00
23131;BME280;11734;51.046;13.778;2022-08-19T11:53:58;28157.69;;;23.99;100.00
23131;BME280;11734;51.046;13.778;2022-08-19T11:56:26;28827.47;;;23.73;100.00
23131;BME280;11734;51.046;13.778;2022-08-19T11:58:55;28823.56;;;23.65;100.00
23131;BME280;11734;51.046;13.778;2022-08-19T12:01:25;29161.13;;;23.58;100.00
23131;BME280;11734;51.046;13.778;2022-08-19T12:03:54;29153.94;;;23.43;100.00
23131;BME280;11734;51.046;13.778;2022-08-19T12:06:28;28813.28;;;23.44;100.00
23131;BME280;11734;51.046;13.778;2022-08-19T12:08:59;28813.28;;;23.44;100.00
23131;BME280;11734;51.046;13.778;2022-08-19T12:11:27;28820.16;;;23.58;100.00
23131;BME280;11734;51.046;13.778;2022-08-19T12:14:00;29158.13;;;23.52;100.00
23131;BME280;11734;51.046;13.778;2022-08-19T12:16:30;29154.94;;;23.45;100.00
23131;BME280;11734;51.046;13.778;2022-08-19T12:18:59;29474.59;;;23.02;100.00
23131;BME280;11734;51.046;13.778;2022-08-19T12:21:33;29138.34;;;23.12;100.00
23131;BME280;11734;51.046;13.778;2022-08-19T12:24:03;29133.41;;;23.01;100.00
23131;BME280;11734;51.046;13.778;2022-08-19T12:26:30;29461.59;;;22.76;100.00
23131;BME280;11734;51.046;13.778;2022-08-19T12:28:59;28444.88;;;22.86;100.00
23131;BME280;11734;51.046;13.778;2022-08-19T12:31:28;28098.16;;;22.73;100.00
23131;BME280;11734;51.046;13.778;2022-08-19T12:33:56;27746.88;;;22.50;100.00
23131;BME280;11734;51.046;13.778;2022-08-19T12:36:24;27419.72;;;22.78;100.00
23131;BME280;11734;51.046;13.778;2022-08-19T12:38:52;27410.38;;;22.58;100.00
23131;BME280;11734;51.046;13.778;2022-08-19T12:41:19;27429.75;;;23.00;100.00
23131;BME280;11734;51.046;13.778;2022-08-19T12:43:49;27433.25;;;23.08;100.00
23131;BME280;11734;51.046;13.778;2022-08-19T12:46:19;27777.81;;;23.16;100.00
23131;BME280;11734;51.046;13.778;2022-08-19T12:48:51;28456.47;;;23.11;100.00
23131;BME280;11734;51.046;13.778;2022-08-19T12:51:21;28790.78;;;22.97;100.00
23131;BME280;11734;51.046;13.778;2022-08-19T12:53:48;28795.66;;;23.08;100.00
23131;BME280;11734;51.046;13.778;2022-08-19T12:56:17;29139.09;;;23.13;100.00
23131;BME280;11734;51.046;13.778;2022-08-19T12:58:49;28807.16;;;23.31;100.00
23131;BME280;11734;51.046;13.778;2022-08-19T13:01:19;29491.84;;;23.37;100.00
23131;BME280;11734;51.046;13.778;2022-08-19T13:03:50;29495.09;;;23.44;100.00
23131;BME280;11734;51.046;13.778;2022-08-19T13:06:19;30513.41;;;23.35;100.00
23131;BME280;11734;51.046;13.778;2022-08-19T13:08:47;31187.06;;;23.19;100.00
23131;BME280;11734;51.046;13.778;2022-08-19T13:11:18;30849.75;;;23.26;100.00
23131;BME280;11734;51.046;13.778;2022-08-19T13:13:48;30856.53;;;23.39;100.00
23131;BME280;11734;51.046;13.778;2022-08-19T13:16:18;30518.34;;;23.44;100.00
23131;BME280;11734;51.046;13.778;2022-08-19T13:18:47;30516.53;;;23.41;100.00